Terminal Aerodrome Forecast
Issued by NWS Bismarck, ND

Home | Current Version | Previous Version | Text Only | Print | Product List | Glossary Off
Versions: 1 2 3 4 5 6 7 8 9 10 11 12 13 14 15 16 17 18

000
FTUS43 KBIS 262327
TAFISN
TAF
KISN 262327Z 2700/2724 04014G20KT P6SM SCT120 SCT250
     FM270300 03007KT P6SM SCT050
     FM270800 11012KT P6SM VCTS SCT050CB OVC100
     FM271200 06012KT P6SM -SHRA VCTS OVC040CB
     FM271800 08007KT P6SM VCTS SCT060CB
     FM272200 10005KT P6SM VCTS BKN050CB OVC080=

USA.gov is the U.S. government's official web portal to all federal, state and local government web resources and services.